TimeEST,TemperatureF,Dew PointF,Humidity,Sea Level PressureIn,VisibilityMPH,Wind Direction,Wind SpeedMPH,Gust SpeedMPH,PrecipitationIn,Events,Conditions,WindDirDegrees,DateUTC
12:52 AM,27.0,12.9,56,29.81,10.0,West,9.2,-,N/A,,Clear,280,2013-02-21 05:52:00
1:52 AM,26.1,12.0,55,29.82,10.0,West,5.8,-,N/A,,Clear,270,2013-02-21 06:52:00
2:52 AM,26.1,12.9,58,29.80,10.0,West,9.2,-,N/A,,Overcast,260,2013-02-21 07:52:00
3:52 AM,27.0,14.0,58,29.81,10.0,West,8.1,18.4,N/A,,Clear,260,2013-02-21 08:52:00
4:52 AM,27.0,15.1,61,29.81,10.0,WSW,9.2,-,N/A,,Overcast,250,2013-02-21 09:52:00
5:52 AM,26.1,14.0,60,29.81,10.0,West,9.2,17.3,N/A,,Partly Cloudy,260,2013-02-21 10:52:00
6:52 AM,26.1,14.0,60,29.83,10.0,West,5.8,-,N/A,,Mostly Cloudy,260,2013-02-21 11:52:00
7:52 AM,28.0,12.9,53,29.83,10.0,West,10.4,19.6,N/A,,Overcast,260,2013-02-21 12:52:00
8:52 AM,28.9,12.9,51,29.83,10.0,West,13.8,21.9,N/A,,Overcast,270,2013-02-21 13:52:00
9:52 AM,28.0,14.0,56,29.82,8.0,West,6.9,16.1,0.00,Snow,Light Snow,280,2013-02-21 14:52:00
10:52 AM,30.0,12.9,49,29.81,10.0,Variable,6.9,18.4,0.00,,Mostly Cloudy,0,2013-02-21 15:52:00
11:52 AM,30.9,12.9,47,29.81,10.0,WNW,12.7,20.7,N/A,,Mostly Cloudy,300,2013-02-21 16:52:00
12:52 PM,30.9,12.0,46,29.80,10.0,NW,12.7,19.6,N/A,,Overcast,310,2013-02-21 17:52:00
1:52 PM,32.0,12.9,45,29.79,10.0,WNW,11.5,21.9,N/A,,Mostly Cloudy,300,2013-02-21 18:52:00
2:52 PM,32.0,12.9,45,29.81,10.0,Variable,5.8,20.7,N/A,,Mostly Cloudy,0,2013-02-21 19:52:00
3:52 PM,30.9,12.9,47,29.83,10.0,NW,16.1,25.3,N/A,,Clear,320,2013-02-21 20:52:00
4:52 PM,30.0,15.1,54,29.86,10.0,NNW,11.5,23.0,N/A,,Scattered Clouds,330,2013-02-21 21:52:00
5:52 PM,30.0,15.1,54,29.89,10.0,NNW,10.4,27.6,N/A,,Overcast,340,2013-02-21 22:52:00
6:52 PM,30.0,16.0,56,29.93,10.0,NNW,12.7,29.9,N/A,,Overcast,330,2013-02-21 23:52:00
7:52 PM,30.9,18.0,59,29.96,10.0,NNW,15.0,24.2,N/A,,Overcast,330,2013-02-22 00:52:00
8:52 PM,30.0,19.0,64,30.00,10.0,NNW,15.0,27.6,N/A,,Overcast,330,2013-02-22 01:52:00
9:52 PM,30.9,21.0,67,30.02,10.0,NNW,10.4,20.7,N/A,,Overcast,330,2013-02-22 02:52:00
10:27 PM,32.0,23.0,69,30.02,10.0,NW,9.2,21.9,N/A,,Overcast,320,2013-02-22 03:27:00
10:52 PM,33.1,24.1,70,30.04,10.0,NW,6.9,23.0,N/A,,Overcast,320,2013-02-22 03:52:00
11:52 PM,34.0,26.1,73,30.07,10.0,NNW,12.7,21.9,0.00,,Overcast,330,2013-02-22 04:52:00